Bei Facebook empfehlenBei Twitter postenGoogle plusPinterest

Das Wetter im Erzgebirge am 31.08.2015

Wetter und Klima am 31.08.2015 Holzhau im Erzgebirge (630m ü.NN)
Letzte gemessene Temperatur und Uhrzeit der Messung23:45:00 Uhr21.10 °C
Temperatur (Maximum / Höchstwert) und Uhrzeit der Messung16:15:00 Uhr34.10 °C
Temperatur (Minimum / Tiefstwert) und Uhrzeit der Messung06:45:0015.50 °C
Errechneter Absolutwert der Temperaturschwankungen zwischen Tmin und Tmax des Tages18.60 K
Errechnete Tagesmitteltemperatur23.88438 °C
Gesamt - Niederschlag des Tages (in flüssiger Form)0.00 Liter / m²
Luftdruck (Maximum / Höchstwert) und Zeitpunkt der Messung00:00:00 Uhr1016.70 hPa
Luftdruck (Minimum / Tiefstwert) und Zeitpunkt der Messung23:30:00 Uhr1009.80 hPa
Errechneter Absolutwert der Luftdruckschwankungen des Tages6.90 hPa
Höchste gemessene Windgeschwindigkeit und Uhrzeit der Messung16:45:00 Uhr9.72 km/h
Errechnete Windhäufigkeit in Relation zu den Messwerten des Tages29.16667 %
Niedrigste Windkühle (Windchill) und Zeitpunkt der Messung06:45:00 Uhr15.50 °C
Taupunkt (Maximum / Höchstwert) und Uhrzeit der Messung09:45:00 Uhr21.60 °C
Taupunkt (Minimum / Tiefstwert) und Uhrzeit der Messung06:45:0013.70 °C
Anzahl der automatisch eingelesenen Messwerte 96

Detaillierte Wetter- und Klima- Messwerte für den 31.08.2015 in Holzhau im Erzgebirge (630m ü.NN)
ZeitTemperaturLuftdruckRel. LuftfeuchteWindWindrichtungWindchillTaupunktNiederschlag l/m²
23:45:0021.10 °C1010.20 hPa75.00 %16.50 °C 
23:30:0021.30 °C1009.80 hPa75.00 %16.70 °C 
23:15:0021.10 °C1009.80 hPa76.00 %16.70 °C 
23:00:0020.80 °C1010.00 hPa77.00 %16.60 °C 
22:45:0020.50 °C1010.20 hPa77.00 %2.16 km/hOSO20.50 °C16.30 °C 
22:30:0020.50 °C1010.30 hPa77.00 %16.30 °C 
22:15:0020.60 °C1010.30 hPa77.00 %16.40 °C 
22:00:0020.90 °C1010.30 hPa77.00 %16.70 °C 
21:45:0020.90 °C1010.40 hPa76.00 %16.50 °C 
21:30:0021.10 °C1010.50 hPa75.00 %16.50 °C 
21:15:0021.30 °C1010.40 hPa74.00 %16.50 °C 
21:00:0021.40 °C1010.50 hPa73.00 %16.40 °C 
20:45:0021.80 °C1010.50 hPa72.00 %16.50 °C 
20:30:0022.30 °C1010.60 hPa70.00 %16.60 °C 
20:15:0023.10 °C1010.70 hPa68.00 %16.90 °C 
20:00:0023.90 °C1010.50 hPa66.00 %17.20 °C 
19:45:0024.90 °C1010.50 hPa64.00 %17.60 °C 
19:30:0025.90 °C1010.50 hPa62.00 %18.10 °C 
19:15:0027.10 °C1010.60 hPa60.00 %18.70 °C 
19:00:0028.30 °C1010.80 hPa57.00 %19.00 °C 
18:45:0028.90 °C1010.70 hPa55.00 %18.90 °C 
18:30:0029.20 °C1010.90 hPa53.00 %18.60 °C 
18:15:0029.80 °C1010.80 hPa50.00 %7.56 km/hSW32.30 °C18.30 °C 
18:00:0030.50 °C1011.20 hPa48.00 %18.20 °C 
17:45:0031.00 °C1011.10 hPa47.00 %18.40 °C 
17:30:0031.40 °C1011.30 hPa46.00 %18.40 °C 
17:15:0031.60 °C1011.40 hPa46.00 %2.88 km/hSSW31.60 °C18.60 °C 
17:00:0032.10 °C1011.50 hPa43.00 %5.40 km/hSW34.80 °C17.90 °C 
16:45:0032.90 °C1011.50 hPa41.00 %9.72 km/hSW36.00 °C17.90 °C 
16:30:0033.50 °C1011.60 hPa39.00 %17.60 °C 
16:15:0034.10 °C1011.90 hPa39.00 %6.12 km/hSW37.20 °C18.20 °C 
16:00:0033.60 °C1012.10 hPa38.00 %3.96 km/hWSW33.60 °C17.30 °C 
15:45:0033.40 °C1012.10 hPa41.00 %4.68 km/hSSW33.40 °C18.30 °C 
15:30:0033.10 °C1012.20 hPa43.00 %3.96 km/hSW33.10 °C18.80 °C 
15:15:0032.40 °C1012.50 hPa45.00 %5.04 km/hWSW35.20 °C18.90 °C 
15:00:0032.00 °C1012.90 hPa46.00 %18.90 °C 
14:45:0032.00 °C1012.70 hPa46.00 %18.90 °C 
14:30:0032.10 °C1012.90 hPa45.00 %5.04 km/hS34.80 °C18.70 °C 
14:15:0032.40 °C1013.00 hPa45.00 %4.32 km/hWSW32.40 °C18.90 °C 
14:00:0032.40 °C1013.10 hPa45.00 %18.90 °C 
13:45:0032.30 °C1012.90 hPa45.00 %18.80 °C 
13:30:0032.20 °C1013.10 hPa45.00 %18.80 °C 
13:15:0031.90 °C1013.20 hPa45.00 %5.40 km/hWSW34.60 °C18.50 °C 
13:00:0031.90 °C1013.10 hPa46.00 %18.80 °C 
12:45:0031.80 °C1013.30 hPa47.00 %19.10 °C 
12:30:0031.40 °C1013.20 hPa47.00 %18.70 °C 
12:15:0031.40 °C1013.40 hPa48.00 %7.20 km/hSW34.10 °C19.10 °C 
12:00:0031.40 °C1013.40 hPa48.00 %19.10 °C 
11:45:0031.50 °C1013.40 hPa49.00 %19.50 °C 
11:30:0031.20 °C1013.70 hPa50.00 %19.50 °C 
11:15:0030.80 °C1013.40 hPa53.00 %20.10 °C 
11:00:0030.40 °C1013.40 hPa55.00 %2.88 km/hS30.40 °C20.30 °C 
10:45:0029.90 °C1013.50 hPa56.00 %20.20 °C 
10:30:0029.30 °C1013.60 hPa59.00 %5.04 km/hSW31.70 °C20.50 °C 
10:15:0028.30 °C1013.60 hPa63.00 %20.60 °C 
10:00:0027.30 °C1013.60 hPa69.00 %21.10 °C 
09:45:0025.90 °C1013.70 hPa77.00 %21.60 °C 
09:30:0024.40 °C1013.80 hPa79.00 %20.50 °C 
09:15:0022.90 °C1013.60 hPa80.00 %19.30 °C 
09:00:0021.90 °C1013.90 hPa82.00 %18.70 °C 
08:45:0020.60 °C1013.90 hPa83.00 %17.60 °C 
08:30:0019.60 °C1013.80 hPa85.00 %17.00 °C 
08:15:0018.50 °C1014.20 hPa87.00 %1.44 km/hOSO18.50 °C16.30 °C 
08:00:0017.50 °C1014.40 hPa88.00 %15.50 °C 
07:45:0016.40 °C1014.60 hPa88.00 %14.40 °C 
07:30:0015.90 °C1014.70 hPa88.00 %13.90 °C 
07:15:0015.80 °C1014.80 hPa89.00 %14.00 °C 
07:00:0015.60 °C1014.80 hPa89.00 %13.80 °C 
06:45:0015.50 °C1014.70 hPa89.00 %13.70 °C 
06:30:0015.50 °C1014.50 hPa89.00 %13.70 °C 
06:15:0015.60 °C1014.50 hPa89.00 %13.80 °C 
06:00:0015.80 °C1014.30 hPa89.00 %14.00 °C 
05:45:0015.80 °C1014.30 hPa89.00 %14.00 °C 
05:30:0015.80 °C1014.60 hPa88.00 %2.52 km/hOSO15.80 °C13.80 °C 
05:15:0015.90 °C1014.70 hPa88.00 %13.90 °C 
05:00:0016.10 °C1014.50 hPa88.00 %14.10 °C 
04:45:0016.30 °C1014.60 hPa88.00 %14.30 °C 
04:30:0016.30 °C1014.70 hPa88.00 %4.68 km/hONO16.30 °C14.30 °C 
04:15:0016.30 °C1014.90 hPa87.00 %3.24 km/hO16.30 °C14.10 °C 
04:00:0016.40 °C1015.00 hPa86.00 %14.10 °C 
03:45:0016.90 °C1015.10 hPa86.00 %14.50 °C 
03:30:0017.30 °C1015.20 hPa86.00 %14.90 °C 
03:15:0017.60 °C1015.10 hPa86.00 %5.04 km/hOSO18.40 °C15.20 °C 
03:00:0017.40 °C1015.40 hPa87.00 %2.88 km/hOSO17.40 °C15.20 °C 
02:45:0017.40 °C1015.40 hPa86.00 %15.00 °C 
02:30:0017.60 °C1015.40 hPa86.00 %1.44 km/hSO17.60 °C15.20 °C 
02:15:0017.80 °C1015.60 hPa86.00 %15.40 °C 
02:00:0017.90 °C1015.60 hPa86.00 %3.24 km/hOSO17.90 °C15.50 °C 
01:45:0018.20 °C1015.70 hPa87.00 %16.00 °C 
01:30:0018.30 °C1015.80 hPa87.00 %16.10 °C 
01:15:0018.30 °C1015.80 hPa87.00 %2.52 km/hSO18.30 °C16.10 °C 
01:00:0018.30 °C1016.10 hPa87.00 %2.16 km/hSO18.30 °C16.10 °C 
00:45:0018.30 °C1016.00 hPa87.00 %9.00 km/hSO18.60 °C16.10 °C 
00:30:0018.30 °C1016.30 hPa86.00 %5.04 km/hSSO19.20 °C15.90 °C 
00:15:0018.40 °C1016.50 hPa86.00 %16.00 °C 
00:00:0018.40 °C1016.70 hPa85.00 %15.80 °C 

Permanenter Link zu dieser Seite: Wetter im Erzgebirge am 31.08.2015
Performance-Info: Die Erstellung der Seite / Statistik(en) / Tabelle(n) erforderte 5 Datenbankserver-Abfrage(n) und dauerte 102 Millisekunden. (Dieser Messwert ist von der Gesamt-Auslastung des Servers abhängig.)
Erzgebirge - Wetter | Erzgebirge - Wetter (Mobilgeräte) | Komplette Klimadatenbank